This is the latest recevied weather packets stored in our database for station/object KF7SOJ. If no packets are shown the sender has not sent any weather packets the latest 10 day(s).
| Time | Temp. | Humidity | Pressure | Rain* | Wind** | Luminosity | Snow |
|---|---|---|---|---|---|---|---|
| 1777587004 | 16.11° C | 23% | 936 hPa | 0 mm | - | 700 W/m² | - |
| 1777586700 | 15.56° C | 24% | 936.1 hPa | 0 mm | - | 724 W/m² | - |
| 1777586396 | 16.11° C | 22% | 936.2 hPa | 0 mm | - | 736 W/m² | - |
| 1777586095 | 16.11° C | 25% | 936.2 hPa | 0 mm | - | 738 W/m² | - |
| 1777585794 | 16.67° C | 23% | 936.2 hPa | 0 mm | - | 751 W/m² | - |
| 1777585488 | 16.67° C | 23% | 936.4 hPa | 0 mm | - | 762 W/m² | - |
| 1777585185 | 16.67° C | 21% | 936.4 hPa | 0 mm | - | 776 W/m² | - |
| 1777584880 | 16.11° C | 26% | 936.3 hPa | 0 mm | - | 788 W/m² | - |
| 1777584578 | 16.11° C | 22% | 936.5 hPa | 0 mm | - | 795 W/m² | - |
| 1777584274 | 16.11° C | 23% | 936.4 hPa | 0 mm | - | 808 W/m² | - |
| 1777583969 | 16.11° C | 26% | 936.4 hPa | 0 mm | - | 820 W/m² | - |
| 1777583664 | 15.56° C | 23% | 936.4 hPa | 0 mm | - | 831 W/m² | - |
| 1777583364 | 16.67° C | 22% | 936.6 hPa | 0 mm | - | 215 W/m² | - |
| 1777583058 | 16.11° C | 24% | 936.4 hPa | 0 mm | - | 845 W/m² | - |
| 1777582755 | 16.11° C | 22% | 936.5 hPa | 0 mm | - | 860 W/m² | - |
| 1777582451 | 15.56° C | 24% | 936.5 hPa | 0 mm | - | 868 W/m² | - |
| 1777582151 | 16.11° C | 22% | 936.6 hPa | 0 mm | - | 877 W/m² | - |
| 1777581850 | 16.11° C | 24% | 936.7 hPa | 0 mm | - | 887 W/m² | - |
| 1777581549 | 15.56° C | 27% | 936.7 hPa | 0 mm | - | 916 W/m² | - |
| 1777581245 | 15.56° C | 26% | 936.7 hPa | 0 mm | - | 936 W/m² | - |
| 1777580945 | 16.11° C | 25% | 936.6 hPa | 0 mm | - | 913 W/m² | - |
| 1777580639 | 15.56° C | 26% | 936.8 hPa | 0 mm | - | 912 W/m² | - |
| 1777580335 | 15.56° C | 26% | 936.7 hPa | 0 mm | - | 917 W/m² | - |
| 1777580032 | 15.56° C | 24% | 936.8 hPa | 0 mm | - | 935 W/m² | - |
| 1777579728 | 15.56° C | 25% | 936.9 hPa | 0 mm | - | 931 W/m² | - |
* Rain latest hour (hover to see other rain measurements)
** Current wind speed in m/s (hover to see current wind gust speed)